createdAt,value
2023-01-07T00:01:30.846Z,2.72
2023-01-07T00:04:03.006Z,1.77
2023-01-07T00:06:36.639Z,2.00
2023-01-07T00:09:10.034Z,1.50
2023-01-07T00:11:42.647Z,1.40
2023-01-07T00:14:16.326Z,1.40
2023-01-07T00:16:47.607Z,1.70
2023-01-07T00:19:19.267Z,1.50
2023-01-07T00:21:50.504Z,1.50
2023-01-07T00:24:21.642Z,2.33
2023-01-07T00:26:52.668Z,1.48
2023-01-07T00:29:24.177Z,1.65
2023-01-07T00:31:55.576Z,1.65
2023-01-07T00:34:29.271Z,1.60
2023-01-07T00:37:20.245Z,1.35
2023-01-07T00:39:51.780Z,1.38
2023-01-07T00:42:40.935Z,1.70
2023-01-07T00:45:12.458Z,1.40
2023-01-07T00:50:13.773Z,1.23
2023-01-07T00:52:45.739Z,1.65
2023-01-07T00:55:17.808Z,1.30
2023-01-07T00:57:49.629Z,1.27
2023-01-07T01:00:23.034Z,1.35
2023-01-07T01:02:54.761Z,1.15
2023-01-07T01:05:26.137Z,3.28
2023-01-07T01:07:57.363Z,2.80
2023-01-07T01:10:29.455Z,1.77
2023-01-07T01:13:00.392Z,1.30
2023-01-07T01:15:31.594Z,1.17
2023-01-07T01:18:02.867Z,1.23
2023-01-07T01:20:33.819Z,1.33
2023-01-07T01:25:35.857Z,1.13
2023-01-07T01:28:07.335Z,1.30
2023-01-07T01:33:09.410Z,1.00
2023-01-07T01:35:43.347Z,1.30
2023-01-07T01:38:14.732Z,1.30
2023-01-07T01:40:45.857Z,1.20
2023-01-07T01:43:38.439Z,1.42
2023-01-07T01:46:22.838Z,1.40
2023-01-07T01:49:00.924Z,1.50
2023-01-07T01:51:36.215Z,1.10
2023-01-07T01:54:09.515Z,1.00
2023-01-07T01:56:44.603Z,0.98
2023-01-07T01:59:20.393Z,1.27
2023-01-07T02:01:52.288Z,1.20
2023-01-07T02:07:07.610Z,0.90
2023-01-07T02:09:41.249Z,1.25
2023-01-07T02:12:34.034Z,1.40
2023-01-07T02:15:23.486Z,1.10
2023-01-07T02:18:23.497Z,1.00
2023-01-07T02:21:00.696Z,1.50
2023-01-07T02:23:43.696Z,1.60
2023-01-07T02:26:36.319Z,1.40
2023-01-07T02:29:28.913Z,1.30
2023-01-07T02:32:13.077Z,1.20
2023-01-07T02:35:08.438Z,1.10
2023-01-07T02:38:14.717Z,1.10
2023-01-07T02:41:14.239Z,0.90
2023-01-07T02:43:58.951Z,0.90
2023-01-07T02:47:19.160Z,0.82
2023-01-07T02:49:51.316Z,0.80
2023-01-07T02:52:28.897Z,0.90
2023-01-07T02:55:08.972Z,0.80
2023-01-07T03:00:49.054Z,0.82
2023-01-07T03:03:34.324Z,1.10
2023-01-07T03:06:25.253Z,0.90
2023-01-07T03:09:05.720Z,0.80
2023-01-07T03:11:55.492Z,1.00
2023-01-07T03:14:41.401Z,0.85
2023-01-07T03:17:17.092Z,0.90
2023-01-07T03:19:51.845Z,0.90
2023-01-07T03:22:25.793Z,0.77
2023-01-07T03:24:59.080Z,0.60
2023-01-07T03:27:32.812Z,0.80
2023-01-07T03:30:07.146Z,0.80
2023-01-07T03:32:44.812Z,0.70
2023-01-07T03:35:16.205Z,1.10
2023-01-07T03:37:48.134Z,0.90
2023-01-07T03:40:19.854Z,2.22
2023-01-07T03:42:52.090Z,0.77
2023-01-07T03:45:28.295Z,0.80
2023-01-07T03:48:01.869Z,0.60
2023-01-07T03:50:38.839Z,0.70
2023-01-07T03:53:10.871Z,0.70
2023-01-07T03:55:43.173Z,0.73
2023-01-07T03:58:14.246Z,0.70
2023-01-07T04:00:45.480Z,0.60
2023-01-07T04:03:21.487Z,0.63
2023-01-07T04:05:53.452Z,0.70
2023-01-07T04:08:26.835Z,0.63
2023-01-07T04:10:58.105Z,0.65
2023-01-07T04:13:30.652Z,0.70
2023-01-07T04:16:01.580Z,0.80
2023-01-07T04:18:32.748Z,0.70
2023-01-07T04:21:03.942Z,1.88
2023-01-07T04:23:35.333Z,0.90
2023-01-07T04:26:06.981Z,0.70
2023-01-07T04:28:38.267Z,0.85
2023-01-07T04:31:09.546Z,1.05
2023-01-07T04:33:41.111Z,0.90
2023-01-07T04:36:14.658Z,0.63
2023-01-07T04:38:45.751Z,0.90
2023-01-07T04:43:47.791Z,4.10
2023-01-07T04:46:19.142Z,1.00
2023-01-07T04:48:51.243Z,2.10
2023-01-07T04:51:22.501Z,0.60
2023-01-07T04:53:54.651Z,1.55
2023-01-07T04:56:26.931Z,1.20
2023-01-07T04:58:58.087Z,1.30
2023-01-07T05:01:34.096Z,0.88
2023-01-07T05:04:05.504Z,1.10
2023-01-07T05:06:36.728Z,0.90
2023-01-07T05:09:07.913Z,0.90
2023-01-07T05:11:39.051Z,1.20
2023-01-07T05:14:13.250Z,0.75
2023-01-07T05:16:44.555Z,0.80
2023-01-07T05:19:16.474Z,0.93
2023-01-07T05:21:50.688Z,0.80
2023-01-07T05:24:22.445Z,0.68
2023-01-07T05:26:55.145Z,0.90
2023-01-07T05:31:57.442Z,1.02
2023-01-07T05:34:29.517Z,0.90
2023-01-07T05:37:01.529Z,0.70
2023-01-07T05:39:33.911Z,0.80
2023-01-07T05:42:07.505Z,0.68
2023-01-07T05:47:09.369Z,0.70
2023-01-07T05:49:40.507Z,0.80
2023-01-07T05:52:11.595Z,0.98
2023-01-07T05:54:42.969Z,0.90
2023-01-07T05:57:14.636Z,0.70
2023-01-07T05:59:46.080Z,1.00
2023-01-07T06:02:17.331Z,0.80
2023-01-07T06:07:19.408Z,0.80
2023-01-07T06:09:50.655Z,0.80
2023-01-07T06:12:21.561Z,0.80
2023-01-07T06:14:52.941Z,0.90
2023-01-07T06:17:23.885Z,0.85
2023-01-07T06:19:55.515Z,1.33
2023-01-07T06:22:26.480Z,0.93
2023-01-07T06:24:57.594Z,1.00
2023-01-07T06:27:28.734Z,1.15
2023-01-07T06:30:00.069Z,1.00
2023-01-07T06:32:33.343Z,1.60
2023-01-07T06:35:04.496Z,2.22
2023-01-07T06:37:35.873Z,1.70
2023-01-07T06:40:08.144Z,1.40
2023-01-07T06:42:39.345Z,1.08
2023-01-07T06:47:41.743Z,1.30
2023-01-07T06:50:13.665Z,1.20
2023-01-07T06:52:45.413Z,1.05
2023-01-07T06:57:47.676Z,1.05
2023-01-07T07:00:19.057Z,1.10
2023-01-07T07:05:21.059Z,1.10
2023-01-07T07:10:22.682Z,1.60
2023-01-07T07:12:53.853Z,1.73
2023-01-07T07:15:24.948Z,1.90
2023-01-07T07:17:56.035Z,6.20
2023-01-07T07:22:57.818Z,1.83
2023-01-07T07:25:29.014Z,1.83
2023-01-07T07:28:00.151Z,1.60
2023-01-07T07:30:45.836Z,1.48
2023-01-07T07:33:20.440Z,0.90
2023-01-07T07:35:51.871Z,1.10
2023-01-07T07:38:22.883Z,1.75
2023-01-07T07:40:54.082Z,0.73
2023-01-07T07:43:25.194Z,2.10
2023-01-07T07:45:56.053Z,0.95
2023-01-07T07:48:27.562Z,0.85
2023-01-07T07:50:58.845Z,0.60
2023-01-07T07:53:30.107Z,0.60
2023-01-07T07:56:01.442Z,1.10
2023-01-07T07:58:34.866Z,1.40
2023-01-07T08:01:06.300Z,1.00
2023-01-07T08:06:09.953Z,0.65
2023-01-07T08:11:12.167Z,1.10
2023-01-07T08:13:43.600Z,1.60
2023-01-07T08:16:14.953Z,4.22
2023-01-07T08:18:46.249Z,4.03
2023-01-07T08:21:17.439Z,8.45
2023-01-07T08:23:48.694Z,23.60
2023-01-07T08:26:19.860Z,16.75
2023-01-07T08:28:51.152Z,8.80
2023-01-07T08:31:22.436Z,6.75
2023-01-07T08:33:53.789Z,1.67
2023-01-07T08:36:24.898Z,1.10
2023-01-07T08:38:56.980Z,1.20
2023-01-07T08:41:28.515Z,1.67
2023-01-07T08:43:59.545Z,1.70
2023-01-07T08:46:31.046Z,1.40
2023-01-07T08:51:32.893Z,1.77
2023-01-07T08:54:03.988Z,2.90
2023-01-07T08:56:35.321Z,3.17
2023-01-07T08:59:07.381Z,4.70
2023-01-07T09:01:38.650Z,3.38
2023-01-07T09:04:10.066Z,3.40
2023-01-07T09:06:41.229Z,2.55
2023-01-07T09:09:13.365Z,2.53
2023-01-07T09:11:45.350Z,1.50
2023-01-07T09:14:16.620Z,1.20
2023-01-07T09:16:47.731Z,1.50
2023-01-07T09:19:19.154Z,1.20
2023-01-07T09:21:50.214Z,0.60
2023-01-07T09:24:21.648Z,0.75
2023-01-07T09:26:52.942Z,1.20
2023-01-07T09:29:24.126Z,0.90
2023-01-07T09:31:55.229Z,0.80
2023-01-07T09:34:26.330Z,0.80
2023-01-07T09:36:57.648Z,0.90
2023-01-07T09:39:29.008Z,1.20
2023-01-07T09:42:15.540Z,1.10
2023-01-07T09:44:52.860Z,0.90
2023-01-07T09:47:26.547Z,0.98
2023-01-07T09:50:06.099Z,2.50
2023-01-07T09:52:40.705Z,1.35
2023-01-07T09:55:26.676Z,1.27
2023-01-07T09:57:57.752Z,1.20
2023-01-07T10:00:30.496Z,1.10
2023-01-07T10:03:31.407Z,1.20
2023-01-07T10:06:10.628Z,1.20
2023-01-07T10:09:08.954Z,1.30
2023-01-07T10:12:05.619Z,1.50
2023-01-07T10:15:29.654Z,1.40
2023-01-07T10:18:21.309Z,1.58
2023-01-07T10:21:01.457Z,2.10
2023-01-07T10:23:37.373Z,1.60
2023-01-07T10:26:13.348Z,1.70
2023-01-07T10:28:57.561Z,1.20
2023-01-07T10:31:30.064Z,1.60
2023-01-07T10:34:02.116Z,1.42
2023-01-07T10:36:41.132Z,1.30
2023-01-07T10:39:21.384Z,1.20
2023-01-07T10:42:28.572Z,1.23
2023-01-07T10:45:18.057Z,1.15
2023-01-07T10:47:58.520Z,1.02
2023-01-07T10:50:54.989Z,1.05
2023-01-07T10:53:50.859Z,1.40
2023-01-07T10:56:38.645Z,2.08
2023-01-07T10:59:16.462Z,3.03
2023-01-07T11:01:53.285Z,4.95
2023-01-07T11:04:24.511Z,3.97
2023-01-07T11:07:12.162Z,2.03
2023-01-07T11:09:46.382Z,1.40
2023-01-07T11:12:39.251Z,1.50
2023-01-07T11:15:32.138Z,1.50
2023-01-07T11:18:11.032Z,1.50
2023-01-07T11:20:56.216Z,1.25
2023-01-07T11:23:37.644Z,1.40
2023-01-07T11:26:36.051Z,1.05
2023-01-07T11:29:41.274Z,1.00
2023-01-07T11:32:30.459Z,1.05
2023-01-07T11:35:19.102Z,0.93
2023-01-07T11:37:51.772Z,0.90
2023-01-07T11:40:31.200Z,0.90
2023-01-07T11:43:04.069Z,0.90
2023-01-07T11:45:39.517Z,0.90
2023-01-07T11:48:15.096Z,0.90
2023-01-07T11:50:57.158Z,0.73
2023-01-07T11:53:33.740Z,0.73
2023-01-07T11:56:13.750Z,1.10
2023-01-07T11:58:49.548Z,0.98
2023-01-07T12:01:25.506Z,1.00
2023-01-07T12:03:56.833Z,1.00
2023-01-07T12:06:31.207Z,1.00
2023-01-07T12:09:28.087Z,1.10
2023-01-07T12:12:33.389Z,0.90
2023-01-07T12:15:25.351Z,1.00
2023-01-07T12:18:21.309Z,0.90
2023-01-07T12:21:16.918Z,1.13
2023-01-07T12:23:48.039Z,1.00
2023-01-07T12:26:47.950Z,1.02
2023-01-07T12:29:41.661Z,1.10
2023-01-07T12:32:43.220Z,1.08
2023-01-07T12:35:25.367Z,0.80
2023-01-07T12:40:36.655Z,0.68
2023-01-07T12:43:25.757Z,0.70
2023-01-07T12:46:07.117Z,0.70
2023-01-07T12:48:44.729Z,0.70
2023-01-07T12:51:36.307Z,0.70
2023-01-07T12:57:00.622Z,0.70
2023-01-07T12:59:46.363Z,0.60
2023-01-07T13:02:43.161Z,0.77
2023-01-07T13:05:25.956Z,0.60
2023-01-07T13:08:17.144Z,0.60
2023-01-07T13:10:58.223Z,0.70
2023-01-07T13:13:41.314Z,0.80
2023-01-07T13:16:14.117Z,0.80
2023-01-07T13:18:45.612Z,0.90
2023-01-07T13:21:18.925Z,0.80
2023-01-07T13:24:11.342Z,0.80
2023-01-07T13:26:55.099Z,1.00
2023-01-07T13:29:52.014Z,0.98
2023-01-07T13:32:27.098Z,1.02
2023-01-07T13:35:03.902Z,1.13
2023-01-07T13:37:59.291Z,0.60
2023-01-07T13:41:03.736Z,0.90
2023-01-07T13:43:50.158Z,0.95
2023-01-07T13:46:24.633Z,0.90
2023-01-07T13:48:57.058Z,1.10
2023-01-07T13:51:33.735Z,1.00
2023-01-07T13:54:05.513Z,0.93
2023-01-07T13:56:40.759Z,1.00
2023-01-07T13:59:33.352Z,1.05
2023-01-07T14:02:19.937Z,1.15
2023-01-07T14:05:14.107Z,1.45
2023-01-07T14:08:04.110Z,1.20
2023-01-07T14:10:37.358Z,1.30
2023-01-07T14:13:36.168Z,1.20
2023-01-07T14:16:21.139Z,1.10
2023-01-07T14:19:04.273Z,1.48
2023-01-07T14:21:42.650Z,1.30
2023-01-07T14:24:34.613Z,1.40
2023-01-07T14:27:41.535Z,1.60
2023-01-07T14:30:22.538Z,1.40
2023-01-07T14:33:07.271Z,1.30
2023-01-07T14:35:44.862Z,1.33
2023-01-07T14:38:45.357Z,1.40
2023-01-07T14:41:21.945Z,1.40
2023-01-07T14:44:03.825Z,1.80
2023-01-07T14:49:33.879Z,1.60
2023-01-07T14:52:22.412Z,1.50
2023-01-07T14:55:11.506Z,1.73
2023-01-07T14:58:08.825Z,1.55
2023-01-07T15:01:03.874Z,1.40
2023-01-07T15:03:56.330Z,1.10
2023-01-07T15:06:40.613Z,1.33
2023-01-07T15:09:37.196Z,1.20
2023-01-07T15:12:32.518Z,1.17
2023-01-07T15:15:30.634Z,1.23
2023-01-07T15:18:01.900Z,1.20
2023-01-07T15:21:02.227Z,1.05
2023-01-07T15:24:03.753Z,0.90
2023-01-07T15:27:04.224Z,1.20
2023-01-07T15:29:38.244Z,0.90
2023-01-07T15:32:15.265Z,1.00
2023-01-07T15:34:46.307Z,0.80
2023-01-07T15:37:18.259Z,0.90
2023-01-07T15:42:30.574Z,0.88
2023-01-07T15:45:01.954Z,1.00
2023-01-07T15:47:38.391Z,0.98
2023-01-07T15:50:24.328Z,1.20
2023-01-07T15:53:14.907Z,1.00
2023-01-07T15:55:53.905Z,1.02
2023-01-07T15:58:50.254Z,1.02
2023-01-07T16:01:27.955Z,1.10
2023-01-07T16:04:00.665Z,1.35
2023-01-07T16:06:35.525Z,1.20
2023-01-07T16:09:19.894Z,1.40
2023-01-07T16:11:51.489Z,1.15
2023-01-07T16:14:24.497Z,1.40
2023-01-07T16:17:28.795Z,1.52
2023-01-07T16:20:14.102Z,1.20
2023-01-07T16:22:46.249Z,1.40
2023-01-07T16:25:28.188Z,1.38
2023-01-07T16:30:30.071Z,1.20
2023-01-07T16:33:01.436Z,1.50
2023-01-07T16:35:36.993Z,1.40
2023-01-07T16:38:08.377Z,1.30
2023-01-07T16:40:40.583Z,1.27
2023-01-07T16:43:34.352Z,1.40
2023-01-07T16:46:26.263Z,1.30
2023-01-07T16:51:48.784Z,1.20
2023-01-07T16:54:33.740Z,1.40
2023-01-07T16:57:27.473Z,1.40
2023-01-07T17:00:00.126Z,1.55
2023-01-07T17:02:53.531Z,1.33
2023-01-07T17:05:32.076Z,1.77
2023-01-07T17:08:06.692Z,1.45
2023-01-07T17:10:42.049Z,1.35
2023-01-07T17:13:16.727Z,1.20
2023-01-07T17:15:47.973Z,1.30
2023-01-07T17:18:19.049Z,1.40
2023-01-07T17:20:54.654Z,1.40
2023-01-07T17:23:38.092Z,1.20
2023-01-07T17:26:21.359Z,1.30
2023-01-07T17:29:01.438Z,1.40
2023-01-07T17:31:32.555Z,1.33
2023-01-07T17:34:03.924Z,1.63
2023-01-07T17:36:34.883Z,1.40
2023-01-07T17:39:06.191Z,1.30
2023-01-07T17:41:57.323Z,1.15
2023-01-07T17:44:28.669Z,1.50
2023-01-07T17:46:59.663Z,1.40
2023-01-07T17:49:31.028Z,1.35
2023-01-07T17:52:02.258Z,1.30
2023-01-07T17:54:33.696Z,1.25
2023-01-07T17:57:04.648Z,1.40
2023-01-07T17:59:35.750Z,1.10
2023-01-07T18:02:07.969Z,1.13
2023-01-07T18:04:39.172Z,1.20
2023-01-07T18:07:14.973Z,1.50
2023-01-07T18:09:46.016Z,1.23
2023-01-07T18:12:34.637Z,1.30
2023-01-07T18:15:07.544Z,1.33
2023-01-07T18:17:38.485Z,1.13
2023-01-07T18:20:09.860Z,1.00
2023-01-07T18:22:41.051Z,1.20
2023-01-07T18:27:57.296Z,0.90
2023-01-07T18:30:31.325Z,1.02
2023-01-07T18:33:02.953Z,1.23
2023-01-07T18:35:34.196Z,1.10
2023-01-07T18:38:06.113Z,1.10
2023-01-07T18:40:37.538Z,0.77
2023-01-07T18:43:09.240Z,0.80
2023-01-07T18:45:45.928Z,0.88
2023-01-07T18:48:18.546Z,0.82
2023-01-07T18:50:51.985Z,0.75
2023-01-07T18:53:24.052Z,0.82
2023-01-07T18:56:03.827Z,0.70
2023-01-07T18:58:35.151Z,0.80
2023-01-07T19:01:10.434Z,1.10
2023-01-07T19:03:41.970Z,1.00
2023-01-07T19:06:14.051Z,1.00
2023-01-07T19:08:48.634Z,1.13
2023-01-07T19:11:20.203Z,0.80
2023-01-07T19:13:51.214Z,0.80
2023-01-07T19:18:54.705Z,0.50
2023-01-07T19:21:28.183Z,1.05
2023-01-07T19:24:00.449Z,0.70
2023-01-07T19:26:31.559Z,0.40
2023-01-07T19:29:03.333Z,0.52
2023-01-07T19:31:35.802Z,0.50
2023-01-07T19:34:07.284Z,0.50
2023-01-07T19:36:38.422Z,0.40
2023-01-07T19:39:09.727Z,0.40
2023-01-07T19:41:40.754Z,0.40
2023-01-07T19:44:12.075Z,0.50
2023-01-07T19:46:44.164Z,0.30
2023-01-07T19:49:15.737Z,0.30
2023-01-07T19:51:47.001Z,0.40
2023-01-07T19:54:18.419Z,0.30
2023-01-07T19:56:49.484Z,0.40
2023-01-07T20:01:51.605Z,0.50
2023-01-07T20:04:23.541Z,0.40
2023-01-07T20:06:55.076Z,0.35
2023-01-07T20:09:26.678Z,0.32
2023-01-07T20:14:28.674Z,0.40
2023-01-07T20:17:00.796Z,0.30
2023-01-07T20:19:32.306Z,0.45
2023-01-07T20:24:35.111Z,0.30
2023-01-07T20:27:06.988Z,0.30
2023-01-07T20:29:40.180Z,0.32
2023-01-07T20:32:11.630Z,0.30
2023-01-07T20:34:43.258Z,0.35
2023-01-07T20:37:14.467Z,0.40
2023-01-07T20:39:45.770Z,0.35
2023-01-07T20:42:17.065Z,0.40
2023-01-07T20:44:48.875Z,0.50
2023-01-07T20:47:20.381Z,0.30
2023-01-07T20:49:51.568Z,0.50
2023-01-07T20:52:22.829Z,0.82
2023-01-07T20:54:53.849Z,0.40
2023-01-07T20:57:25.424Z,0.40
2023-01-07T20:59:56.447Z,0.38
2023-01-07T21:02:28.260Z,0.70
2023-01-07T21:04:59.670Z,0.60
2023-01-07T21:07:30.944Z,0.70
2023-01-07T21:12:32.899Z,0.50
2023-01-07T21:17:35.451Z,0.60
2023-01-07T21:22:39.639Z,0.43
2023-01-07T21:25:12.918Z,0.40
2023-01-07T21:27:44.914Z,0.38
2023-01-07T21:30:19.183Z,0.40
2023-01-07T21:32:50.225Z,0.40
2023-01-07T21:35:21.770Z,0.43
2023-01-07T21:37:57.019Z,0.57
2023-01-07T21:40:28.298Z,0.40
2023-01-07T21:42:59.643Z,0.40
2023-01-07T21:45:30.884Z,0.40
2023-01-07T21:48:02.353Z,0.43
2023-01-07T21:50:33.829Z,0.32
2023-01-07T21:53:04.935Z,0.25
2023-01-07T21:58:07.068Z,0.47
2023-01-07T22:00:38.466Z,0.50
2023-01-07T22:03:10.038Z,0.30
2023-01-07T22:05:42.873Z,0.50
2023-01-07T22:08:14.206Z,0.32
2023-01-07T22:10:50.482Z,0.40
2023-01-07T22:13:22.493Z,0.40
2023-01-07T22:15:53.610Z,0.25
2023-01-07T22:18:25.574Z,0.40
2023-01-07T22:20:57.714Z,0.30
2023-01-07T22:23:29.055Z,0.38
2023-01-07T22:26:10.903Z,0.40
2023-01-07T22:28:42.547Z,0.40
2023-01-07T22:31:23.433Z,0.47
2023-01-07T22:33:54.926Z,0.50
2023-01-07T22:36:49.989Z,0.40
2023-01-07T22:39:33.776Z,0.40
2023-01-07T22:42:10.658Z,0.35
2023-01-07T22:44:47.785Z,0.40
2023-01-07T22:47:22.893Z,0.40
2023-01-07T22:49:54.967Z,0.40
2023-01-07T22:52:26.050Z,0.40
2023-01-07T22:54:58.142Z,0.40
2023-01-07T22:57:30.152Z,0.40
2023-01-07T23:00:02.082Z,0.40
2023-01-07T23:02:33.518Z,0.50
2023-01-07T23:05:05.146Z,0.30
2023-01-07T23:10:08.035Z,0.30
2023-01-07T23:12:39.089Z,0.60
2023-01-07T23:15:13.194Z,0.57
2023-01-07T23:17:44.760Z,0.38
2023-01-07T23:20:16.439Z,0.68
2023-01-07T23:25:18.060Z,0.20
2023-01-07T23:30:22.116Z,0.45
2023-01-07T23:32:56.810Z,0.70
2023-01-07T23:35:28.093Z,0.90
2023-01-07T23:40:30.607Z,1.58
2023-01-07T23:43:01.786Z,2.20
2023-01-07T23:45:33.385Z,2.80
2023-01-07T23:50:35.529Z,0.80
2023-01-07T23:53:06.853Z,1.52
2023-01-07T23:55:40.579Z,1.38
2023-01-07T23:58:11.954Z,0.90
